createdAt,value
2018-03-02T00:00:00.556Z,85.60
2018-03-02T00:02:28.837Z,86.90
2018-03-02T00:04:57.134Z,87.40
2018-03-02T00:07:24.653Z,87.40
2018-03-02T00:09:52.193Z,87.40
2018-03-02T00:12:19.707Z,88.00
2018-03-02T00:14:47.269Z,88.30
2018-03-02T00:17:14.951Z,88.70
2018-03-02T00:19:42.486Z,89.20
2018-03-02T00:22:10.776Z,90.60
2018-03-02T00:24:38.338Z,90.60
2018-03-02T00:27:05.881Z,90.40
2018-03-02T00:29:34.173Z,90.80
2018-03-02T00:32:01.683Z,90.80
2018-03-02T00:34:29.212Z,90.80
2018-03-02T00:36:56.765Z,90.60
2018-03-02T00:39:24.284Z,91.00
2018-03-02T00:41:51.927Z,91.30
2018-03-02T00:44:19.461Z,91.80
2018-03-02T00:46:47.012Z,92.10
2018-03-02T00:49:14.523Z,92.00
2018-03-02T00:51:42.818Z,92.00
2018-03-02T00:54:10.327Z,92.00
2018-03-02T00:56:37.856Z,92.80
2018-03-02T00:59:05.428Z,93.40
2018-03-02T01:01:33.164Z,93.30
2018-03-02T01:04:00.706Z,93.60
2018-03-02T01:06:28.246Z,93.70
2018-03-02T01:08:55.750Z,94.10
2018-03-02T01:11:23.270Z,94.50
2018-03-02T01:13:50.847Z,94.30
2018-03-02T01:16:19.134Z,95.00
2018-03-02T01:18:47.449Z,94.90
2018-03-02T01:21:14.963Z,94.90
2018-03-02T01:23:43.234Z,94.80
2018-03-02T01:26:11.551Z,95.20
2018-03-02T01:28:39.169Z,95.20
2018-03-02T01:31:06.712Z,95.30
2018-03-02T01:33:34.269Z,95.40
2018-03-02T01:36:01.801Z,95.60
2018-03-02T01:38:29.330Z,95.60
2018-03-02T01:40:56.851Z,95.70
2018-03-02T01:43:24.379Z,96.10
2018-03-02T01:45:51.924Z,96.20
2018-03-02T01:48:19.455Z,96.90
2018-03-02T01:50:46.972Z,96.90
2018-03-02T01:53:14.513Z,96.80
2018-03-02T01:55:42.014Z,96.70
2018-03-02T01:58:09.524Z,96.80
2018-03-02T02:00:37.044Z,97.10
2018-03-02T02:03:05.331Z,96.50
2018-03-02T02:05:33.655Z,96.40
2018-03-02T02:08:01.167Z,96.40
2018-03-02T02:10:28.679Z,96.50
2018-03-02T02:12:56.204Z,96.50
2018-03-02T02:15:23.747Z,96.70
2018-03-02T02:17:52.070Z,96.80
2018-03-02T02:20:19.582Z,96.80
2018-03-02T02:22:47.866Z,98.00
2018-03-02T02:25:16.157Z,97.80
2018-03-02T02:27:43.738Z,97.80
2018-03-02T02:30:11.260Z,97.70
2018-03-02T02:32:39.650Z,98.30
2018-03-02T02:35:07.196Z,98.30
2018-03-02T02:37:37.197Z,99.00
2018-03-02T02:40:04.726Z,99.00
2018-03-02T02:42:32.244Z,99.30
2018-03-02T02:45:00.527Z,99.90
2018-03-02T02:47:28.035Z,99.90
2018-03-02T02:49:55.546Z,99.90
2018-03-02T02:52:23.061Z,99.90
2018-03-02T02:54:50.578Z,99.90
2018-03-02T02:57:18.096Z,99.90
2018-03-02T02:59:45.634Z,99.90
2018-03-02T03:02:13.155Z,99.90
2018-03-02T03:04:40.683Z,99.90
2018-03-02T03:07:08.243Z,99.90
2018-03-02T03:09:36.548Z,99.90
2018-03-02T03:12:04.080Z,99.90
2018-03-02T03:14:31.609Z,99.90
2018-03-02T03:16:59.124Z,99.90
2018-03-02T03:19:26.661Z,99.90
2018-03-02T03:21:54.940Z,99.90
2018-03-02T03:24:23.238Z,99.90
2018-03-02T03:26:50.799Z,99.90
2018-03-02T03:29:18.367Z,99.90
2018-03-02T03:31:45.896Z,99.90
2018-03-02T03:34:14.209Z,99.90
2018-03-02T03:36:41.757Z,99.90
2018-03-02T03:39:09.282Z,99.90
2018-03-02T03:41:37.664Z,99.90
2018-03-02T03:44:05.231Z,99.90
2018-03-02T03:46:33.505Z,99.90
2018-03-02T03:49:01.777Z,99.90
2018-03-02T03:51:30.053Z,99.90
2018-03-02T03:53:58.333Z,99.90
2018-03-02T03:56:26.623Z,99.90
2018-03-02T03:58:54.886Z,99.90
2018-03-02T04:01:23.168Z,99.90
2018-03-02T04:03:52.211Z,99.90
2018-03-02T04:06:20.711Z,99.90
2018-03-02T04:08:48.229Z,99.90
2018-03-02T04:11:15.770Z,99.90
2018-03-02T04:13:43.292Z,99.90
2018-03-02T04:16:10.815Z,99.90
2018-03-02T04:18:38.327Z,99.90
2018-03-02T04:21:05.863Z,99.90
2018-03-02T04:23:33.365Z,99.90
2018-03-02T04:26:00.875Z,99.90
2018-03-02T04:28:28.428Z,99.90
2018-03-02T04:30:55.946Z,99.90
2018-03-02T04:33:24.232Z,99.90
2018-03-02T04:35:51.763Z,99.90
2018-03-02T04:38:19.273Z,99.90
2018-03-02T04:40:46.779Z,99.90
2018-03-02T04:43:14.281Z,99.90
2018-03-02T04:45:41.814Z,99.90
2018-03-02T04:48:09.362Z,99.90
2018-03-02T04:50:36.878Z,99.90
2018-03-02T04:53:04.377Z,99.90
2018-03-02T04:55:31.917Z,99.90
2018-03-02T04:57:59.433Z,99.90
2018-03-02T05:00:26.948Z,99.90
2018-03-02T05:02:54.509Z,99.90
2018-03-02T05:05:22.031Z,99.90
2018-03-02T05:07:49.561Z,99.90
2018-03-02T05:10:17.083Z,99.90
2018-03-02T05:12:44.602Z,99.90
2018-03-02T05:15:12.124Z,99.90
2018-03-02T05:17:39.646Z,99.90
2018-03-02T05:20:07.193Z,99.90
2018-03-02T05:22:34.712Z,99.90
2018-03-02T05:25:02.239Z,99.90
2018-03-02T05:27:29.787Z,99.90
2018-03-02T05:29:57.339Z,99.90
2018-03-02T05:32:24.843Z,99.90
2018-03-02T05:34:53.119Z,99.90
2018-03-02T05:37:21.409Z,99.90
2018-03-02T05:39:48.927Z,99.90
2018-03-02T05:42:16.441Z,99.90
2018-03-02T05:44:43.927Z,99.90
2018-03-02T05:47:11.459Z,99.90
2018-03-02T05:49:39.014Z,99.90
2018-03-02T05:52:06.538Z,99.90
2018-03-02T05:54:34.038Z,99.90
2018-03-02T05:57:01.562Z,99.90
2018-03-02T05:59:29.851Z,99.90
2018-03-02T06:01:57.381Z,99.90
2018-03-02T06:04:24.882Z,99.90
2018-03-02T06:06:52.407Z,99.90
2018-03-02T06:09:19.928Z,99.90
2018-03-02T06:11:47.443Z,99.90
2018-03-02T06:14:15.736Z,99.90
2018-03-02T06:16:43.250Z,99.90
2018-03-02T06:19:10.767Z,99.90
2018-03-02T06:21:39.006Z,99.90
2018-03-02T06:24:06.519Z,99.90
2018-03-02T06:26:34.042Z,99.90
2018-03-02T06:29:02.316Z,99.90
2018-03-02T06:31:31.463Z,99.90
2018-03-02T06:33:59.099Z,99.90
2018-03-02T06:36:26.624Z,99.90
2018-03-02T06:38:54.144Z,99.90
2018-03-02T06:41:21.663Z,99.90
2018-03-02T06:43:49.200Z,99.90
2018-03-02T06:46:16.716Z,99.90
2018-03-02T06:48:44.267Z,99.90
2018-03-02T06:51:11.798Z,99.90
2018-03-02T06:53:39.332Z,99.90
2018-03-02T06:56:06.912Z,99.90
2018-03-02T06:58:34.447Z,99.90
2018-03-02T07:01:02.061Z,99.90
2018-03-02T07:03:29.586Z,99.90
2018-03-02T07:05:58.657Z,99.90
2018-03-02T07:08:26.984Z,99.90
2018-03-02T07:10:54.508Z,99.90
2018-03-02T07:13:22.026Z,99.90
2018-03-02T07:15:49.535Z,99.90
2018-03-02T07:18:17.819Z,99.90
2018-03-02T07:20:46.103Z,99.90
2018-03-02T07:23:13.642Z,99.90
2018-03-02T07:25:41.371Z,99.90
2018-03-02T07:28:08.890Z,99.90
2018-03-02T07:30:36.409Z,99.90
2018-03-02T07:33:03.918Z,99.90
2018-03-02T07:35:31.449Z,99.90
2018-03-02T07:37:59.728Z,99.90
2018-03-02T07:40:28.001Z,99.90
2018-03-02T07:42:56.299Z,99.90
2018-03-02T07:45:23.864Z,99.90
2018-03-02T07:47:51.377Z,99.90
2018-03-02T07:50:18.884Z,99.90
2018-03-02T07:52:46.396Z,99.90
2018-03-02T07:55:13.953Z,99.90
2018-03-02T07:57:41.483Z,99.90
2018-03-02T08:00:08.986Z,99.90
2018-03-02T08:02:36.541Z,99.90
2018-03-02T08:05:04.071Z,99.90
2018-03-02T08:07:31.667Z,99.90
2018-03-02T08:10:01.138Z,99.90
2018-03-02T08:12:28.671Z,99.90
2018-03-02T08:14:56.199Z,99.70
2018-03-02T08:17:23.712Z,99.90
2018-03-02T08:19:51.234Z,99.80
2018-03-02T08:22:18.771Z,99.90
2018-03-02T08:24:47.070Z,99.90
2018-03-02T08:27:14.591Z,99.90
2018-03-02T08:29:42.124Z,99.60
2018-03-02T08:32:09.644Z,99.50
2018-03-02T08:34:37.215Z,99.40
2018-03-02T08:37:04.732Z,98.00
2018-03-02T08:39:32.279Z,97.70
2018-03-02T08:41:59.822Z,97.40
2018-03-02T08:44:27.323Z,97.00
2018-03-02T08:46:54.881Z,96.40
2018-03-02T08:49:22.373Z,95.30
2018-03-02T08:51:49.890Z,95.40
2018-03-02T08:54:17.403Z,94.40
2018-03-02T08:56:44.966Z,94.80
2018-03-02T08:59:12.518Z,94.50
2018-03-02T09:01:40.039Z,94.30
2018-03-02T09:04:07.558Z,93.30
2018-03-02T09:06:35.100Z,92.80
2018-03-02T09:09:02.620Z,92.70
2018-03-02T09:11:30.934Z,91.90
2018-03-02T09:13:58.511Z,91.80
2018-03-02T09:16:26.055Z,92.60
2018-03-02T09:18:53.584Z,92.40
2018-03-02T09:21:22.151Z,91.40
2018-03-02T09:23:50.498Z,90.90
2018-03-02T09:26:18.041Z,89.70
2018-03-02T09:28:45.565Z,89.50
2018-03-02T09:31:13.844Z,88.30
2018-03-02T09:33:42.165Z,90.10
2018-03-02T09:36:09.708Z,90.10
2018-03-02T09:38:37.247Z,87.00
2018-03-02T09:41:05.547Z,84.20
2018-03-02T09:43:33.108Z,84.20
2018-03-02T09:46:00.631Z,83.60
2018-03-02T09:48:28.960Z,81.10
2018-03-02T09:50:56.505Z,81.00
2018-03-02T09:53:24.036Z,81.30
2018-03-02T09:55:52.352Z,79.70
2018-03-02T09:58:19.902Z,79.50
2018-03-02T10:00:47.432Z,78.00
2018-03-02T10:03:15.186Z,76.90
2018-03-02T10:05:42.727Z,75.70
2018-03-02T10:08:10.273Z,74.40
2018-03-02T10:10:37.806Z,72.90
2018-03-02T10:13:05.322Z,71.00
2018-03-02T10:15:32.866Z,70.30
2018-03-02T10:18:00.397Z,69.00
2018-03-02T10:20:27.918Z,68.00
2018-03-02T10:22:56.367Z,65.70
2018-03-02T10:25:23.874Z,65.70
2018-03-02T10:27:51.396Z,66.00
2018-03-02T10:30:18.922Z,65.00
2018-03-02T10:32:46.544Z,62.80
2018-03-02T10:35:14.060Z,61.70
2018-03-02T10:37:41.603Z,57.40
2018-03-02T10:40:09.222Z,51.30
2018-03-02T10:42:37.499Z,42.90
2018-03-02T10:45:05.008Z,42.80
2018-03-02T10:47:32.541Z,38.50
2018-03-02T10:50:00.065Z,37.10
2018-03-02T10:52:28.374Z,34.00
2018-03-02T10:54:55.899Z,34.00
2018-03-02T10:57:24.192Z,30.20
2018-03-02T10:59:51.702Z,30.10
2018-03-02T11:02:21.010Z,30.50
2018-03-02T11:05:06.331Z,30.00
2018-03-02T11:07:33.876Z,29.70
2018-03-02T11:10:01.407Z,29.10
2018-03-02T11:12:28.933Z,27.90
2018-03-02T11:14:56.462Z,27.70
2018-03-02T11:17:24.747Z,26.30
2018-03-02T11:19:52.375Z,26.20
2018-03-02T11:22:19.882Z,26.20
2018-03-02T11:24:47.418Z,26.80
2018-03-02T11:27:15.709Z,27.20
2018-03-02T11:29:43.238Z,27.20
2018-03-02T11:32:10.751Z,26.40
2018-03-02T11:34:38.257Z,26.60
2018-03-02T11:37:05.782Z,28.40
2018-03-02T11:39:33.306Z,27.80
2018-03-02T11:42:00.825Z,26.80
2018-03-02T11:44:28.343Z,26.50
2018-03-02T11:46:55.874Z,27.30
2018-03-02T11:49:23.395Z,27.30
2018-03-02T11:51:50.986Z,26.40
2018-03-02T11:54:18.505Z,26.00
2018-03-02T11:56:46.010Z,26.20
2018-03-02T11:59:14.306Z,23.20
2018-03-02T12:01:41.828Z,23.20
2018-03-02T12:04:09.375Z,24.40
2018-03-02T12:06:36.901Z,24.70
2018-03-02T12:09:04.460Z,23.70
2018-03-02T12:11:31.989Z,22.50
2018-03-02T12:14:00.259Z,22.20
2018-03-02T12:16:28.522Z,23.40
2018-03-02T12:18:56.839Z,23.90
2018-03-02T12:21:24.355Z,23.90
2018-03-02T12:23:51.873Z,23.90
2018-03-02T12:26:19.503Z,24.60
2018-03-02T12:28:47.051Z,23.90
2018-03-02T12:48:34.596Z,19.80
2018-03-02T12:51:02.125Z,19.60
2018-03-02T12:53:29.672Z,19.70
2018-03-02T12:55:57.194Z,18.50
2018-03-02T12:58:24.767Z,18.60
2018-03-02T13:00:52.352Z,19.60
2018-03-02T13:03:19.861Z,19.60
2018-03-02T13:05:48.130Z,22.10
2018-03-02T13:08:16.424Z,21.40
2018-03-02T13:10:44.752Z,20.90
2018-03-02T13:13:12.259Z,20.80
2018-03-02T13:15:39.835Z,20.20
2018-03-02T13:18:07.399Z,19.60
2018-03-02T13:20:35.006Z,20.50
2018-03-02T13:23:02.534Z,20.10
2018-03-02T13:25:30.097Z,20.20
2018-03-02T13:28:09.381Z,20.40
2018-03-02T13:30:38.598Z,19.90
2018-03-02T13:33:17.892Z,19.80
2018-03-02T13:35:45.420Z,21.00
2018-03-02T13:38:12.924Z,21.90
2018-03-02T13:40:52.305Z,22.40
2018-03-02T13:43:19.835Z,23.00
2018-03-02T13:45:47.412Z,23.30
2018-03-02T13:48:35.675Z,23.20
2018-03-02T13:51:03.884Z,22.80
2018-03-02T13:53:31.402Z,23.40
2018-03-02T13:55:58.914Z,23.00
2018-03-02T13:58:26.467Z,22.30
2018-03-02T14:00:54.019Z,22.10
2018-03-02T14:03:33.230Z,22.20
2018-03-02T14:06:00.764Z,22.30
2018-03-02T14:08:28.334Z,22.50
2018-03-02T14:10:55.853Z,22.80
2018-03-02T14:13:23.371Z,22.50
2018-03-02T14:15:50.923Z,23.30
2018-03-02T14:18:18.452Z,23.80
2018-03-02T14:20:45.950Z,23.20
2018-03-02T14:23:13.475Z,23.10
2018-03-02T14:25:41.031Z,23.00
2018-03-02T14:28:08.572Z,23.10
2018-03-02T14:30:36.102Z,22.70
2018-03-02T14:33:03.615Z,23.50
2018-03-02T14:35:32.242Z,23.70
2018-03-02T14:37:59.789Z,24.10
2018-03-02T14:40:27.296Z,24.50
2018-03-02T14:42:55.572Z,24.90
2018-03-02T14:45:23.894Z,25.20
2018-03-02T14:47:51.404Z,24.90
2018-03-02T14:50:18.907Z,24.30
2018-03-02T14:52:46.424Z,24.30
2018-03-02T14:55:13.929Z,24.40
2018-03-02T14:57:41.442Z,24.00
2018-03-02T15:00:08.975Z,24.40
2018-03-02T15:02:36.506Z,24.60
2018-03-02T15:05:04.015Z,24.50
2018-03-02T15:07:31.548Z,23.80
2018-03-02T15:09:59.072Z,25.80
2018-03-02T15:12:26.623Z,27.40
2018-03-02T15:14:56.753Z,28.40
2018-03-02T15:17:24.260Z,30.00
2018-03-02T15:19:51.782Z,31.50
2018-03-02T15:22:19.287Z,32.40
2018-03-02T15:24:46.832Z,33.20
2018-03-02T15:27:15.162Z,33.80
2018-03-02T15:29:42.699Z,33.80
2018-03-02T15:32:10.259Z,34.20
2018-03-02T15:34:38.558Z,34.80
2018-03-02T15:37:06.093Z,34.80
2018-03-02T15:39:33.600Z,35.00
2018-03-02T15:42:01.128Z,35.50
2018-03-02T15:44:29.426Z,35.40
2018-03-02T15:46:56.958Z,35.50
2018-03-02T15:49:24.478Z,35.40
2018-03-02T15:51:52.005Z,35.60
2018-03-02T15:54:19.511Z,35.70
2018-03-02T15:56:47.036Z,35.80
2018-03-02T15:59:14.570Z,36.10
2018-03-02T16:01:42.122Z,35.90
2018-03-02T16:04:09.755Z,35.80
2018-03-02T16:06:37.293Z,36.00
2018-03-02T16:09:05.608Z,36.40
2018-03-02T16:11:33.144Z,36.50
2018-03-02T16:14:00.684Z,36.80
2018-03-02T16:16:28.222Z,37.00
2018-03-02T16:18:55.724Z,36.90
2018-03-02T16:21:23.314Z,36.90
2018-03-02T16:23:51.606Z,37.00
2018-03-02T16:26:19.133Z,37.00
2018-03-02T16:28:46.755Z,37.10
2018-03-02T16:31:14.384Z,37.00
2018-03-02T16:33:41.958Z,37.20
2018-03-02T16:36:09.484Z,37.40
2018-03-02T16:38:37.061Z,37.50
2018-03-02T16:41:04.538Z,37.40
2018-03-02T16:43:32.076Z,37.50
2018-03-02T16:45:59.637Z,37.50
2018-03-02T16:48:27.187Z,37.70
2018-03-02T16:50:55.493Z,38.00
2018-03-02T16:53:23.037Z,38.00
2018-03-02T16:55:50.586Z,38.00
2018-03-02T16:58:18.876Z,38.30
2018-03-02T17:00:46.404Z,38.20
2018-03-02T17:03:13.922Z,38.60
2018-03-02T17:05:41.478Z,39.20
2018-03-02T17:08:09.004Z,39.20
2018-03-02T17:10:36.533Z,39.20
2018-03-02T17:13:04.093Z,39.30
2018-03-02T17:15:31.632Z,39.20
2018-03-02T17:17:59.139Z,39.50
2018-03-02T17:20:27.426Z,39.70
2018-03-02T17:22:55.716Z,40.00
2018-03-02T17:25:23.240Z,40.00
2018-03-02T17:27:50.750Z,40.30
2018-03-02T17:30:21.116Z,40.40
2018-03-02T17:32:48.659Z,40.20
2018-03-02T17:35:16.232Z,40.20
2018-03-02T17:37:43.779Z,40.30
2018-03-02T17:40:11.330Z,40.50
2018-03-02T17:42:38.863Z,40.60
2018-03-02T17:45:06.432Z,40.70
2018-03-02T17:47:33.963Z,41.00
2018-03-02T17:50:02.316Z,41.10
2018-03-02T17:52:29.859Z,41.00
2018-03-02T17:54:57.485Z,40.60
2018-03-02T17:57:25.029Z,40.60
2018-03-02T17:59:53.311Z,40.90
2018-03-02T18:02:20.850Z,41.00
2018-03-02T18:04:48.434Z,41.00
2018-03-02T18:07:15.968Z,41.20
2018-03-02T18:09:43.515Z,41.40
2018-03-02T18:12:11.028Z,41.30
2018-03-02T18:14:38.568Z,41.20
2018-03-02T18:17:06.110Z,41.20
2018-03-02T18:19:34.400Z,41.50
2018-03-02T18:22:01.935Z,42.10
2018-03-02T18:24:29.437Z,41.80
2018-03-02T18:26:56.959Z,41.60
2018-03-02T18:29:24.475Z,41.60
2018-03-02T18:32:00.574Z,41.80
2018-03-02T18:34:28.974Z,41.90
2018-03-02T18:36:57.248Z,42.30
2018-03-02T18:39:25.595Z,42.50
2018-03-02T18:41:53.073Z,42.50
2018-03-02T18:44:20.611Z,42.70
2018-03-02T18:46:48.171Z,42.90
2018-03-02T18:49:15.773Z,42.90
2018-03-02T18:51:44.039Z,43.50
2018-03-02T18:54:12.369Z,43.50
2018-03-02T18:56:40.194Z,43.40
2018-03-02T18:59:07.767Z,43.80
2018-03-02T19:01:35.289Z,43.60
2018-03-02T19:04:02.821Z,43.70
2018-03-02T19:06:30.354Z,43.80
2018-03-02T19:08:57.880Z,44.00
2018-03-02T19:28:45.488Z,44.90
2018-03-02T19:31:13.037Z,45.20
2018-03-02T19:33:40.569Z,45.10
2018-03-02T19:36:08.104Z,45.30
2018-03-02T19:38:36.424Z,45.40
2018-03-02T19:41:03.976Z,45.30
2018-03-02T19:43:31.477Z,45.70
2018-03-02T19:45:59.002Z,45.90
2018-03-02T19:48:26.562Z,45.80
2018-03-02T19:50:54.116Z,45.90
2018-03-02T19:53:21.627Z,46.20
2018-03-02T19:55:49.167Z,46.30
2018-03-02T19:58:17.483Z,46.50
2018-03-02T20:00:45.778Z,46.60
2018-03-02T20:03:13.330Z,46.50
2018-03-02T20:05:40.867Z,46.40
2018-03-02T20:08:09.202Z,46.30
2018-03-02T20:10:36.727Z,46.30
2018-03-02T20:13:04.244Z,46.50
2018-03-02T20:15:31.759Z,46.50
2018-03-02T20:17:59.273Z,46.70
2018-03-02T20:20:26.869Z,47.00
2018-03-02T20:22:55.147Z,47.30
2018-03-02T20:25:22.698Z,47.40
2018-03-02T20:27:50.274Z,47.40
2018-03-02T20:30:17.809Z,47.40
2018-03-02T20:32:46.131Z,48.00
2018-03-02T20:35:13.722Z,48.00
2018-03-02T20:37:41.232Z,48.10
2018-03-02T20:40:08.768Z,48.20
2018-03-02T20:42:37.055Z,48.30
2018-03-02T20:45:05.322Z,48.50
2018-03-02T20:47:33.650Z,48.70
2018-03-02T20:50:01.167Z,48.70
2018-03-02T20:52:28.903Z,49.10
2018-03-02T20:54:56.443Z,49.20
2018-03-02T20:57:23.989Z,49.40
2018-03-02T20:59:51.525Z,49.60
2018-03-02T21:02:19.086Z,49.90
2018-03-02T21:04:46.637Z,50.00
2018-03-02T21:07:14.937Z,50.60
2018-03-02T21:09:42.480Z,50.60
2018-03-02T21:12:10.054Z,51.50
2018-03-02T21:14:37.581Z,51.70
2018-03-02T21:17:05.147Z,51.60
2018-03-02T21:19:33.441Z,51.50
2018-03-02T21:22:00.958Z,51.50
2018-03-02T21:24:28.521Z,51.90
2018-03-02T21:26:56.082Z,52.00
2018-03-02T21:29:23.606Z,51.90
2018-03-02T21:31:51.176Z,51.90
2018-03-02T21:34:18.979Z,51.90
2018-03-02T21:36:46.282Z,52.50
2018-03-02T21:39:13.837Z,52.90
2018-03-02T21:41:41.373Z,53.30
2018-03-02T21:44:09.644Z,53.80
2018-03-02T21:46:37.945Z,54.20
2018-03-02T21:49:05.540Z,54.20
2018-03-02T21:51:33.059Z,54.50
2018-03-02T21:54:00.580Z,54.60
2018-03-02T21:56:28.115Z,54.90
2018-03-02T21:58:55.660Z,55.00
2018-03-02T22:01:23.185Z,55.50
2018-03-02T22:03:50.712Z,55.70
2018-03-02T22:06:18.228Z,56.20
2018-03-02T22:08:45.742Z,56.20
2018-03-02T22:11:13.278Z,56.60
2018-03-02T22:13:40.805Z,56.90
2018-03-02T22:16:08.324Z,57.10
2018-03-02T22:18:35.832Z,57.50
2018-03-02T22:21:03.354Z,57.30
2018-03-02T22:23:31.641Z,58.40
2018-03-02T22:25:59.158Z,58.50
2018-03-02T22:28:26.693Z,58.80
2018-03-02T22:30:54.247Z,59.10
2018-03-02T22:33:21.826Z,59.70
2018-03-02T22:35:49.387Z,61.20
2018-03-02T22:38:16.917Z,61.70
2018-03-02T22:40:44.469Z,63.60
2018-03-02T22:43:12.040Z,64.70
2018-03-02T22:45:39.524Z,65.80
2018-03-02T22:48:07.038Z,67.10
2018-03-02T22:50:34.545Z,68.00
2018-03-02T22:53:02.141Z,68.10
2018-03-02T22:55:30.447Z,68.50
2018-03-02T22:57:58.011Z,68.50
2018-03-02T23:00:25.618Z,69.00
2018-03-02T23:02:53.102Z,69.80
2018-03-02T23:05:20.614Z,69.70
2018-03-02T23:07:48.125Z,71.00
2018-03-02T23:10:16.390Z,73.50
2018-03-02T23:12:44.692Z,75.30
2018-03-02T23:15:12.210Z,75.30
2018-03-02T23:17:39.799Z,76.70
2018-03-02T23:20:08.091Z,78.40
2018-03-02T23:22:35.605Z,78.40
2018-03-02T23:25:03.130Z,80.00
2018-03-02T23:27:30.643Z,81.60
2018-03-02T23:29:58.928Z,84.80
2018-03-02T23:32:27.214Z,86.10
2018-03-02T23:34:54.758Z,86.10
2018-03-02T23:37:22.363Z,86.40
2018-03-02T23:39:49.871Z,85.90
2018-03-02T23:42:17.492Z,86.30
2018-03-02T23:44:45.008Z,86.80
2018-03-02T23:47:12.546Z,87.30
2018-03-02T23:49:40.059Z,87.60
2018-03-02T23:52:07.583Z,86.80
2018-03-02T23:54:35.111Z,87.10
2018-03-02T23:57:02.643Z,87.50
2018-03-02T23:59:30.142Z,88.70
